sensor_id;sensor_type;location;lat;lon;timestamp;P1;durP1;ratioP1;P2;durP2;ratioP2
53389;SDS011;39288;42.970;1.524;2022-11-24T00:00:30;36.30;;;17.03;;
53389;SDS011;39288;42.970;1.524;2022-11-24T00:01:30;36.50;;;15.30;;
53389;SDS011;39288;42.970;1.524;2022-11-24T00:02:31;27.57;;;14.33;;
53389;SDS011;39288;42.970;1.524;2022-11-24T00:03:32;32.73;;;15.67;;
53389;SDS011;39288;42.970;1.524;2022-11-24T00:04:32;36.97;;;18.07;;
53389;SDS011;39288;42.970;1.524;2022-11-24T00:05:34;35.97;;;17.03;;
53389;SDS011;39288;42.970;1.524;2022-11-24T00:06:37;31.75;;;16.23;;
53389;SDS011;39288;42.970;1.524;2022-11-24T00:07:37;30.20;;;15.57;;
53389;SDS011;39288;42.970;1.524;2022-11-24T00:08:38;26.33;;;15.30;;
53389;SDS011;39288;42.970;1.524;2022-11-24T00:09:40;33.10;;;17.52;;
53389;SDS011;39288;42.970;1.524;2022-11-24T00:10:41;31.87;;;16.90;;
53389;SDS011;39288;42.970;1.524;2022-11-24T00:11:41;38.00;;;18.60;;
53389;SDS011;39288;42.970;1.524;2022-11-24T00:12:41;37.97;;;20.60;;
53389;SDS011;39288;42.970;1.524;2022-11-24T00:13:42;39.50;;;21.30;;
53389;SDS011;39288;42.970;1.524;2022-11-24T00:14:43;37.65;;;20.58;;
53389;SDS011;39288;42.970;1.524;2022-11-24T00:15:43;38.53;;;18.47;;
53389;SDS011;39288;42.970;1.524;2022-11-24T00:16:44;36.00;;;19.23;;
53389;SDS011;39288;42.970;1.524;2022-11-24T00:17:44;38.95;;;21.52;;
53389;SDS011;39288;42.970;1.524;2022-11-24T00:18:46;35.70;;;19.17;;
53389;SDS011;39288;42.970;1.524;2022-11-24T00:19:47;38.00;;;17.30;;
53389;SDS011;39288;42.970;1.524;2022-11-24T00:20:51;32.07;;;15.13;;
53389;SDS011;39288;42.970;1.524;2022-11-24T00:21:52;34.17;;;16.60;;
53389;SDS011;39288;42.970;1.524;2022-11-24T00:22:52;16.57;;;7.37;;
53389;SDS011;39288;42.970;1.524;2022-11-24T00:23:53;12.27;;;5.63;;
53389;SDS011;39288;42.970;1.524;2022-11-24T00:24:53;19.53;;;6.33;;
53389;SDS011;39288;42.970;1.524;2022-11-24T00:25:54;14.67;;;6.47;;
53389;SDS011;39288;42.970;1.524;2022-11-24T00:26:54;16.83;;;6.37;;
53389;SDS011;39288;42.970;1.524;2022-11-24T00:27:55;14.63;;;5.93;;
53389;SDS011;39288;42.970;1.524;2022-11-24T00:28:57;16.97;;;5.60;;
53389;SDS011;39288;42.970;1.524;2022-11-24T00:29:58;12.15;;;4.88;;
53389;SDS011;39288;42.970;1.524;2022-11-24T00:30:59;12.67;;;4.67;;
53389;SDS011;39288;42.970;1.524;2022-11-24T00:32:00;26.80;;;6.55;;
53389;SDS011;39288;42.970;1.524;2022-11-24T00:33:04;105.07;;;58.17;;
53389;SDS011;39288;42.970;1.524;2022-11-24T00:34:06;19.83;;;10.00;;
53389;SDS011;39288;42.970;1.524;2022-11-24T00:35:09;32.60;;;17.38;;
53389;SDS011;39288;42.970;1.524;2022-11-24T00:36:09;41.70;;;29.17;;
53389;SDS011;39288;42.970;1.524;2022-11-24T00:37:09;43.60;;;26.00;;
53389;SDS011;39288;42.970;1.524;2022-11-24T00:38:10;34.57;;;21.10;;
53389;SDS011;39288;42.970;1.524;2022-11-24T00:39:11;43.20;;;15.67;;
53389;SDS011;39288;42.970;1.524;2022-11-24T00:40:13;26.83;;;12.52;;
53389;SDS011;39288;42.970;1.524;2022-11-24T00:41:13;25.33;;;14.87;;
53389;SDS011;39288;42.970;1.524;2022-11-24T00:42:14;68.97;;;51.93;;
53389;SDS011;39288;42.970;1.524;2022-11-24T00:43:14;47.30;;;34.57;;
53389;SDS011;39288;42.970;1.524;2022-11-24T00:44:15;32.87;;;16.73;;
53389;SDS011;39288;42.970;1.524;2022-11-24T00:45:15;25.70;;;13.87;;
53389;SDS011;39288;42.970;1.524;2022-11-24T00:46:16;36.10;;;21.77;;
53389;SDS011;39288;42.970;1.524;2022-11-24T00:47:16;38.23;;;24.73;;
53389;SDS011;39288;42.970;1.524;2022-11-24T00:48:17;51.30;;;27.60;;
53389;SDS011;39288;42.970;1.524;2022-11-24T00:49:17;35.87;;;21.70;;
53389;SDS011;39288;42.970;1.524;2022-11-24T00:50:18;35.67;;;18.33;;
53389;SDS011;39288;42.970;1.524;2022-11-24T00:51:19;34.53;;;17.83;;
53389;SDS011;39288;42.970;1.524;2022-11-24T00:52:21;26.48;;;13.57;;
53389;SDS011;39288;42.970;1.524;2022-11-24T00:53:21;31.03;;;13.57;;
53389;SDS011;39288;42.970;1.524;2022-11-24T00:54:22;26.80;;;13.40;;
53389;SDS011;39288;42.970;1.524;2022-11-24T00:55:22;26.63;;;14.73;;
53389;SDS011;39288;42.970;1.524;2022-11-24T00:56:24;26.40;;;13.53;;
53389;SDS011;39288;42.970;1.524;2022-11-24T00:57:25;29.52;;;13.02;;
53389;SDS011;39288;42.970;1.524;2022-11-24T00:58:25;25.17;;;12.73;;
53389;SDS011;39288;42.970;1.524;2022-11-24T00:59:26;31.80;;;12.80;;
53389;SDS011;39288;42.970;1.524;2022-11-24T01:00:26;27.87;;;14.07;;
53389;SDS011;39288;42.970;1.524;2022-11-24T01:01:27;29.27;;;15.30;;
53389;SDS011;39288;42.970;1.524;2022-11-24T01:02:29;34.05;;;14.93;;
53389;SDS011;39288;42.970;1.524;2022-11-24T01:03:30;28.53;;;13.67;;
53389;SDS011;39288;42.970;1.524;2022-11-24T01:04:31;30.77;;;14.07;;
53389;SDS011;39288;42.970;1.524;2022-11-24T01:05:34;24.43;;;11.90;;
53389;SDS011;39288;42.970;1.524;2022-11-24T01:06:35;21.42;;;11.18;;
53389;SDS011;39288;42.970;1.524;2022-11-24T01:07:36;20.63;;;9.67;;
53389;SDS011;39288;42.970;1.524;2022-11-24T01:08:37;20.57;;;9.47;;
53389;SDS011;39288;42.970;1.524;2022-11-24T01:09:37;19.23;;;9.05;;
53389;SDS011;39288;42.970;1.524;2022-11-24T01:10:38;24.33;;;10.80;;
53389;SDS011;39288;42.970;1.524;2022-11-24T01:11:38;20.20;;;10.13;;
53389;SDS011;39288;42.970;1.524;2022-11-24T01:12:58;17.98;;;9.27;;
53389;SDS011;39288;42.970;1.524;2022-11-24T01:13:59;25.17;;;11.68;;
53389;SDS011;39288;42.970;1.524;2022-11-24T01:14:59;20.30;;;10.30;;
53389;SDS011;39288;42.970;1.524;2022-11-24T01:16:00;21.47;;;11.00;;
53389;SDS011;39288;42.970;1.524;2022-11-24T01:17:00;21.33;;;7.83;;
53389;SDS011;39288;42.970;1.524;2022-11-24T01:18:01;23.73;;;9.43;;
53389;SDS011;39288;42.970;1.524;2022-11-24T01:19:02;26.92;;;8.07;;
53389;SDS011;39288;42.970;1.524;2022-11-24T01:20:03;15.37;;;6.90;;
53389;SDS011;39288;42.970;1.524;2022-11-24T01:21:03;18.53;;;6.37;;
53389;SDS011;39288;42.970;1.524;2022-11-24T01:22:04;21.00;;;7.00;;
53389;SDS011;39288;42.970;1.524;2022-11-24T01:23:05;15.63;;;7.00;;
53389;SDS011;39288;42.970;1.524;2022-11-24T01:24:05;16.03;;;5.80;;
53389;SDS011;39288;42.970;1.524;2022-11-24T01:25:06;13.33;;;5.73;;
53389;SDS011;39288;42.970;1.524;2022-11-24T01:26:12;16.25;;;6.18;;
53389;SDS011;39288;42.970;1.524;2022-11-24T01:27:17;18.75;;;6.70;;
53389;SDS011;39288;42.970;1.524;2022-11-24T01:28:17;16.10;;;6.53;;
53389;SDS011;39288;42.970;1.524;2022-11-24T01:29:17;15.13;;;5.67;;
53389;SDS011;39288;42.970;1.524;2022-11-24T01:30:18;17.90;;;7.70;;
53389;SDS011;39288;42.970;1.524;2022-11-24T01:31:18;23.73;;;7.27;;
53389;SDS011;39288;42.970;1.524;2022-11-24T01:32:19;20.23;;;6.47;;
53389;SDS011;39288;42.970;1.524;2022-11-24T01:33:20;18.47;;;6.53;;
53389;SDS011;39288;42.970;1.524;2022-11-24T01:34:20;19.37;;;7.33;;
53389;SDS011;39288;42.970;1.524;2022-11-24T01:35:21;19.57;;;7.30;;
53389;SDS011;39288;42.970;1.524;2022-11-24T01:36:21;18.50;;;7.07;;
53389;SDS011;39288;42.970;1.524;2022-11-24T01:37:22;17.30;;;7.10;;
53389;SDS011;39288;42.970;1.524;2022-11-24T01:38:22;18.47;;;6.60;;
53389;SDS011;39288;42.970;1.524;2022-11-24T01:39:24;16.00;;;5.43;;
53389;SDS011;39288;42.970;1.524;2022-11-24T01:40:25;16.87;;;5.90;;
53389;SDS011;39288;42.970;1.524;2022-11-24T01:41:25;29.47;;;6.57;;
53389;SDS011;39288;42.970;1.524;2022-11-24T01:42:32;16.63;;;5.03;;
53389;SDS011;39288;42.970;1.524;2022-11-24T01:43:36;17.15;;;6.28;;
53389;SDS011;39288;42.970;1.524;2022-11-24T01:44:37;15.02;;;6.55;;
53389;SDS011;39288;42.970;1.524;2022-11-24T01:45:37;18.87;;;6.60;;
53389;SDS011;39288;42.970;1.524;2022-11-24T01:46:41;17.05;;;5.80;;
53389;SDS011;39288;42.970;1.524;2022-11-24T01:47:43;14.60;;;6.32;;
53389;SDS011;39288;42.970;1.524;2022-11-24T01:48:45;18.53;;;6.30;;
53389;SDS011;39288;42.970;1.524;2022-11-24T01:50:09;17.63;;;5.63;;
53389;SDS011;39288;42.970;1.524;2022-11-24T01:51:14;19.42;;;5.30;;
53389;SDS011;39288;42.970;1.524;2022-11-24T01:52:38;15.57;;;5.07;;
53389;SDS011;39288;42.970;1.524;2022-11-24T01:53:40;22.55;;;5.93;;
53389;SDS011;39288;42.970;1.524;2022-11-24T01:54:44;10.60;;;4.63;;
53389;SDS011;39288;42.970;1.524;2022-11-24T01:55:48;12.98;;;5.97;;
53389;SDS011;39288;42.970;1.524;2022-11-24T01:57:02;12.93;;;5.30;;
53389;SDS011;39288;42.970;1.524;2022-11-24T01:58:19;11.43;;;5.13;;
53389;SDS011;39288;42.970;1.524;2022-11-24T01:59:22;18.67;;;4.95;;
53389;SDS011;39288;42.970;1.524;2022-11-24T02:00:23;18.92;;;6.18;;
53389;SDS011;39288;42.970;1.524;2022-11-24T02:01:24;14.27;;;5.30;;
53389;SDS011;39288;42.970;1.524;2022-11-24T02:02:26;13.07;;;4.82;;
53389;SDS011;39288;42.970;1.524;2022-11-24T02:04:30;8.90;;;4.28;;
53389;SDS011;39288;42.970;1.524;2022-11-24T02:05:34;14.60;;;4.55;;
53389;SDS011;39288;42.970;1.524;2022-11-24T02:06:39;10.27;;;3.97;;
53389;SDS011;39288;42.970;1.524;2022-11-24T02:07:42;9.90;;;3.70;;
53389;SDS011;39288;42.970;1.524;2022-11-24T02:08:48;10.47;;;4.03;;
53389;SDS011;39288;42.970;1.524;2022-11-24T02:09:53;19.88;;;4.72;;
53389;SDS011;39288;42.970;1.524;2022-11-24T02:10:55;8.85;;;3.03;;
53389;SDS011;39288;42.970;1.524;2022-11-24T02:11:55;17.80;;;4.63;;
53389;SDS011;39288;42.970;1.524;2022-11-24T02:12:58;10.00;;;3.22;;
53389;SDS011;39288;42.970;1.524;2022-11-24T02:13:59;12.43;;;3.80;;
53389;SDS011;39288;42.970;1.524;2022-11-24T02:15:00;15.00;;;3.83;;
53389;SDS011;39288;42.970;1.524;2022-11-24T02:16:01;14.90;;;4.70;;
53389;SDS011;39288;42.970;1.524;2022-11-24T02:17:02;16.83;;;4.22;;
53389;SDS011;39288;42.970;1.524;2022-11-24T02:18:02;18.00;;;4.80;;
53389;SDS011;39288;42.970;1.524;2022-11-24T02:19:08;14.03;;;4.10;;
53389;SDS011;39288;42.970;1.524;2022-11-24T02:20:14;18.55;;;4.30;;
53389;SDS011;39288;42.970;1.524;2022-11-24T02:21:15;17.42;;;4.60;;
53389;SDS011;39288;42.970;1.524;2022-11-24T02:22:18;16.03;;;4.10;;
53389;SDS011;39288;42.970;1.524;2022-11-24T02:27:11;12.57;;;4.37;;
53389;SDS011;39288;42.970;1.524;2022-11-24T02:28:13;19.77;;;4.00;;
53389;SDS011;39288;42.970;1.524;2022-11-24T02:29:16;14.75;;;3.40;;
53389;SDS011;39288;42.970;1.524;2022-11-24T02:30:17;15.65;;;3.40;;
53389;SDS011;39288;42.970;1.524;2022-11-24T02:31:17;15.70;;;3.67;;
53389;SDS011;39288;42.970;1.524;2022-11-24T02:32:18;9.77;;;3.47;;
53389;SDS011;39288;42.970;1.524;2022-11-24T02:33:19;11.03;;;3.67;;
53389;SDS011;39288;42.970;1.524;2022-11-24T02:34:20;13.77;;;3.67;;
53389;SDS011;39288;42.970;1.524;2022-11-24T02:35:21;11.00;;;3.70;;
53389;SDS011;39288;42.970;1.524;2022-11-24T02:36:21;14.40;;;3.83;;
53389;SDS011;39288;42.970;1.524;2022-11-24T02:37:22;14.73;;;2.80;;
53389;SDS011;39288;42.970;1.524;2022-11-24T02:38:29;10.17;;;3.10;;
53389;SDS011;39288;42.970;1.524;2022-11-24T02:39:31;14.30;;;2.55;;
53389;SDS011;39288;42.970;1.524;2022-11-24T02:40:31;10.40;;;2.93;;
53389;SDS011;39288;42.970;1.524;2022-11-24T02:41:32;10.60;;;2.17;;
53389;SDS011;39288;42.970;1.524;2022-11-24T02:42:35;9.50;;;2.43;;
53389;SDS011;39288;42.970;1.524;2022-11-24T02:43:39;11.68;;;2.60;;
53389;SDS011;39288;42.970;1.524;2022-11-24T02:44:43;18.45;;;3.30;;
53389;SDS011;39288;42.970;1.524;2022-11-24T02:45:47;11.10;;;2.75;;
53389;SDS011;39288;42.970;1.524;2022-11-24T02:46:47;10.57;;;2.90;;
53389;SDS011;39288;42.970;1.524;2022-11-24T02:47:47;10.73;;;2.87;;
53389;SDS011;39288;42.970;1.524;2022-11-24T02:48:48;11.53;;;2.97;;
53389;SDS011;39288;42.970;1.524;2022-11-24T02:49:49;13.97;;;2.73;;
53389;SDS011;39288;42.970;1.524;2022-11-24T02:50:49;15.43;;;2.60;;
53389;SDS011;39288;42.970;1.524;2022-11-24T02:51:49;11.43;;;3.07;;
53389;SDS011;39288;42.970;1.524;2022-11-24T02:52:50;11.93;;;2.72;;
53389;SDS011;39288;42.970;1.524;2022-11-24T02:53:50;12.07;;;2.73;;
53389;SDS011;39288;42.970;1.524;2022-11-24T02:54:51;7.67;;;2.37;;
53389;SDS011;39288;42.970;1.524;2022-11-24T02:55:51;16.47;;;3.60;;
53389;SDS011;39288;42.970;1.524;2022-11-24T02:56:52;15.00;;;2.93;;
53389;SDS011;39288;42.970;1.524;2022-11-24T02:57:52;16.87;;;3.70;;
53389;SDS011;39288;42.970;1.524;2022-11-24T02:58:53;9.07;;;2.50;;
53389;SDS011;39288;42.970;1.524;2022-11-24T02:59:53;13.50;;;3.53;;
53389;SDS011;39288;42.970;1.524;2022-11-24T03:00:54;10.98;;;3.53;;
53389;SDS011;39288;42.970;1.524;2022-11-24T03:01:56;14.75;;;3.58;;
53389;SDS011;39288;42.970;1.524;2022-11-24T03:02:56;20.97;;;3.90;;
53389;SDS011;39288;42.970;1.524;2022-11-24T03:03:57;15.30;;;3.47;;
53389;SDS011;39288;42.970;1.524;2022-11-24T03:04:57;14.50;;;3.50;;
53389;SDS011;39288;42.970;1.524;2022-11-24T03:05:58;21.80;;;3.40;;
53389;SDS011;39288;42.970;1.524;2022-11-24T03:06:58;10.20;;;3.87;;
53389;SDS011;39288;42.970;1.524;2022-11-24T03:07:59;12.00;;;4.33;;
53389;SDS011;39288;42.970;1.524;2022-11-24T03:08:59;16.67;;;5.03;;
53389;SDS011;39288;42.970;1.524;2022-11-24T03:10:00;18.67;;;4.63;;
53389;SDS011;39288;42.970;1.524;2022-11-24T03:11:01;13.67;;;4.73;;
53389;SDS011;39288;42.970;1.524;2022-11-24T03:12:02;16.38;;;3.58;;
53389;SDS011;39288;42.970;1.524;2022-11-24T03:13:02;19.57;;;4.37;;
53389;SDS011;39288;42.970;1.524;2022-11-24T03:14:03;17.57;;;4.40;;
53389;SDS011;39288;42.970;1.524;2022-11-24T03:15:04;19.25;;;4.20;;
53389;SDS011;39288;42.970;1.524;2022-11-24T03:16:07;16.55;;;3.70;;
53389;SDS011;39288;42.970;1.524;2022-11-24T03:17:09;9.90;;;3.13;;
53389;SDS011;39288;42.970;1.524;2022-11-24T03:18:09;10.53;;;3.23;;
53389;SDS011;39288;42.970;1.524;2022-11-24T03:19:10;12.97;;;4.27;;
53389;SDS011;39288;42.970;1.524;2022-11-24T03:20:10;10.77;;;3.20;;
53389;SDS011;39288;42.970;1.524;2022-11-24T03:21:11;26.73;;;4.13;;
53389;SDS011;39288;42.970;1.524;2022-11-24T03:22:12;15.10;;;3.63;;
53389;SDS011;39288;42.970;1.524;2022-11-24T03:24:13;16.35;;;3.90;;
53389;SDS011;39288;42.970;1.524;2022-11-24T03:25:14;24.17;;;4.87;;
53389;SDS011;39288;42.970;1.524;2022-11-24T03:26:15;13.02;;;3.67;;
53389;SDS011;39288;42.970;1.524;2022-11-24T03:27:17;16.85;;;5.40;;
53389;SDS011;39288;42.970;1.524;2022-11-24T03:28:17;14.80;;;3.63;;
53389;SDS011;39288;42.970;1.524;2022-11-24T03:29:18;16.27;;;4.20;;
53389;SDS011;39288;42.970;1.524;2022-11-24T03:30:18;11.93;;;3.97;;
53389;SDS011;39288;42.970;1.524;2022-11-24T03:31:19;14.53;;;3.97;;
53389;SDS011;39288;42.970;1.524;2022-11-24T03:32:19;29.90;;;5.73;;
53389;SDS011;39288;42.970;1.524;2022-11-24T03:33:20;15.20;;;5.27;;
53389;SDS011;39288;42.970;1.524;2022-11-24T03:34:20;26.47;;;14.13;;
53389;SDS011;39288;42.970;1.524;2022-11-24T03:35:20;24.47;;;12.13;;
53389;SDS011;39288;42.970;1.524;2022-11-24T03:36:21;24.10;;;12.83;;
53389;SDS011;39288;42.970;1.524;2022-11-24T03:37:21;21.77;;;7.47;;
53389;SDS011;39288;42.970;1.524;2022-11-24T03:38:22;14.27;;;6.97;;
53389;SDS011;39288;42.970;1.524;2022-11-24T03:39:22;16.53;;;4.73;;
53389;SDS011;39288;42.970;1.524;2022-11-24T03:40:23;17.47;;;3.60;;
53389;SDS011;39288;42.970;1.524;2022-11-24T03:41:24;11.07;;;3.07;;
53389;SDS011;39288;42.970;1.524;2022-11-24T03:42:25;13.10;;;3.07;;
53389;SDS011;39288;42.970;1.524;2022-11-24T03:43:25;15.83;;;3.13;;
53389;SDS011;39288;42.970;1.524;2022-11-24T03:44:25;11.97;;;3.07;;
53389;SDS011;39288;42.970;1.524;2022-11-24T03:45:26;11.87;;;2.70;;
53389;SDS011;39288;42.970;1.524;2022-11-24T03:46:26;13.97;;;2.50;;
53389;SDS011;39288;42.970;1.524;2022-11-24T03:47:27;8.33;;;2.70;;
53389;SDS011;39288;42.970;1.524;2022-11-24T03:48:27;7.20;;;2.67;;
53389;SDS011;39288;42.970;1.524;2022-11-24T03:49:28;10.05;;;2.03;;
53389;SDS011;39288;42.970;1.524;2022-11-24T03:50:28;8.27;;;2.80;;
53389;SDS011;39288;42.970;1.524;2022-11-24T03:51:29;18.17;;;3.33;;
53389;SDS011;39288;42.970;1.524;2022-11-24T03:52:29;11.23;;;2.60;;
53389;SDS011;39288;42.970;1.524;2022-11-24T03:53:30;11.00;;;3.93;;
53389;SDS011;39288;42.970;1.524;2022-11-24T03:54:32;9.63;;;2.65;;
53389;SDS011;39288;42.970;1.524;2022-11-24T03:55:33;8.40;;;2.53;;
53389;SDS011;39288;42.970;1.524;2022-11-24T03:56:33;6.20;;;2.10;;
53389;SDS011;39288;42.970;1.524;2022-11-24T03:57:34;7.17;;;3.00;;
53389;SDS011;39288;42.970;1.524;2022-11-24T03:58:34;14.33;;;2.77;;
53389;SDS011;39288;42.970;1.524;2022-11-24T03:59:38;10.03;;;2.70;;
53389;SDS011;39288;42.970;1.524;2022-11-24T04:00:38;5.90;;;2.30;;
53389;SDS011;39288;42.970;1.524;2022-11-24T04:01:39;11.70;;;3.40;;
53389;SDS011;39288;42.970;1.524;2022-11-24T04:02:39;16.58;;;2.67;;
53389;SDS011;39288;42.970;1.524;2022-11-24T04:03:40;11.90;;;3.47;;
53389;SDS011;39288;42.970;1.524;2022-11-24T04:04:40;15.00;;;3.33;;
53389;SDS011;39288;42.970;1.524;2022-11-24T04:05:41;13.73;;;4.90;;
53389;SDS011;39288;42.970;1.524;2022-11-24T04:06:41;12.67;;;4.70;;
53389;SDS011;39288;42.970;1.524;2022-11-24T04:07:41;17.50;;;4.57;;
53389;SDS011;39288;42.970;1.524;2022-11-24T04:08:42;12.70;;;3.83;;
53389;SDS011;39288;42.970;1.524;2022-11-24T04:09:43;13.27;;;2.80;;
53389;SDS011;39288;42.970;1.524;2022-11-24T04:10:47;15.52;;;3.45;;
53389;SDS011;39288;42.970;1.524;2022-11-24T04:11:49;15.50;;;5.05;;
53389;SDS011;39288;42.970;1.524;2022-11-24T04:13:12;16.80;;;4.50;;
53389;SDS011;39288;42.970;1.524;2022-11-24T04:14:14;18.98;;;4.47;;
53389;SDS011;39288;42.970;1.524;2022-11-24T04:15:15;11.87;;;3.53;;
53389;SDS011;39288;42.970;1.524;2022-11-24T04:16:19;10.30;;;3.08;;
53389;SDS011;39288;42.970;1.524;2022-11-24T04:17:19;10.53;;;3.27;;
53389;SDS011;39288;42.970;1.524;2022-11-24T04:18:19;9.27;;;3.13;;
53389;SDS011;39288;42.970;1.524;2022-11-24T04:19:20;13.20;;;2.37;;
53389;SDS011;39288;42.970;1.524;2022-11-24T04:20:21;10.02;;;2.30;;
53389;SDS011;39288;42.970;1.524;2022-11-24T04:21:21;19.30;;;4.53;;
53389;SDS011;39288;42.970;1.524;2022-11-24T04:22:22;16.50;;;3.37;;
53389;SDS011;39288;42.970;1.524;2022-11-24T04:23:22;15.03;;;3.57;;
53389;SDS011;39288;42.970;1.524;2022-11-24T04:24:22;18.97;;;3.07;;
53389;SDS011;39288;42.970;1.524;2022-11-24T04:25:23;14.73;;;3.27;;
53389;SDS011;39288;42.970;1.524;2022-11-24T04:26:24;10.93;;;3.30;;
53389;SDS011;39288;42.970;1.524;2022-11-24T04:27:24;10.97;;;3.07;;
53389;SDS011;39288;42.970;1.524;2022-11-24T04:28:25;12.70;;;3.93;;
53389;SDS011;39288;42.970;1.524;2022-11-24T04:29:25;14.77;;;5.50;;
53389;SDS011;39288;42.970;1.524;2022-11-24T04:30:26;13.70;;;4.17;;
53389;SDS011;39288;42.970;1.524;2022-11-24T04:31:27;15.25;;;5.20;;
53389;SDS011;39288;42.970;1.524;2022-11-24T04:32:27;11.60;;;3.30;;
53389;SDS011;39288;42.970;1.524;2022-11-24T04:33:28;9.50;;;2.37;;
53389;SDS011;39288;42.970;1.524;2022-11-24T04:34:28;12.57;;;2.90;;
53389;SDS011;39288;42.970;1.524;2022-11-24T04:35:32;12.32;;;2.65;;
53389;SDS011;39288;42.970;1.524;2022-11-24T04:36:32;9.77;;;2.60;;
53389;SDS011;39288;42.970;1.524;2022-11-24T04:37:33;10.07;;;2.77;;
53389;SDS011;39288;42.970;1.524;2022-11-24T04:38:33;19.13;;;4.00;;
53389;SDS011;39288;42.970;1.524;2022-11-24T04:39:34;6.33;;;3.10;;
53389;SDS011;39288;42.970;1.524;2022-11-24T04:40:34;14.53;;;3.47;;
53389;SDS011;39288;42.970;1.524;2022-11-24T04:41:35;9.23;;;3.13;;
53389;SDS011;39288;42.970;1.524;2022-11-24T04:42:35;8.30;;;2.80;;
53389;SDS011;39288;42.970;1.524;2022-11-24T04:43:36;8.00;;;2.83;;
53389;SDS011;39288;42.970;1.524;2022-11-24T04:44:36;17.37;;;3.60;;
53389;SDS011;39288;42.970;1.524;2022-11-24T04:45:37;9.77;;;3.13;;
53389;SDS011;39288;42.970;1.524;2022-11-24T04:46:37;10.30;;;3.37;;
53389;SDS011;39288;42.970;1.524;2022-11-24T04:47:38;11.23;;;3.10;;
53389;SDS011;39288;42.970;1.524;2022-11-24T04:48:38;8.63;;;3.40;;
53389;SDS011;39288;42.970;1.524;2022-11-24T04:49:39;9.80;;;2.50;;
53389;SDS011;39288;42.970;1.524;2022-11-24T04:50:39;7.07;;;2.92;;
53389;SDS011;39288;42.970;1.524;2022-11-24T04:51:41;11.70;;;3.40;;
53389;SDS011;39288;42.970;1.524;2022-11-24T04:52:41;9.43;;;3.20;;
53389;SDS011;39288;42.970;1.524;2022-11-24T04:53:42;16.97;;;3.60;;
53389;SDS011;39288;42.970;1.524;2022-11-24T04:54:43;17.67;;;6.40;;
53389;SDS011;39288;42.970;1.524;2022-11-24T04:55:43;12.50;;;4.40;;
53389;SDS011;39288;42.970;1.524;2022-11-24T04:56:44;17.60;;;6.43;;
53389;SDS011;39288;42.970;1.524;2022-11-24T04:57:44;15.37;;;7.57;;
53389;SDS011;39288;42.970;1.524;2022-11-24T04:58:46;18.27;;;7.10;;
53389;SDS011;39288;42.970;1.524;2022-11-24T04:59:48;13.45;;;5.15;;
53389;SDS011;39288;42.970;1.524;2022-11-24T05:00:49;10.80;;;4.10;;
53389;SDS011;39288;42.970;1.524;2022-11-24T05:01:49;9.30;;;2.33;;
53389;SDS011;39288;42.970;1.524;2022-11-24T05:02:50;8.20;;;2.73;;
53389;SDS011;39288;42.970;1.524;2022-11-24T05:03:53;10.33;;;3.10;;
53389;SDS011;39288;42.970;1.524;2022-11-24T05:04:54;7.85;;;2.00;;
53389;SDS011;39288;42.970;1.524;2022-11-24T05:05:57;8.47;;;2.23;;
53389;SDS011;39288;42.970;1.524;2022-11-24T05:06:57;7.03;;;2.17;;
53389;SDS011;39288;42.970;1.524;2022-11-24T05:07:58;10.27;;;2.80;;
53389;SDS011;39288;42.970;1.524;2022-11-24T05:08:59;11.47;;;3.20;;
53389;SDS011;39288;42.970;1.524;2022-11-24T05:09:59;18.85;;;6.18;;
53389;SDS011;39288;42.970;1.524;2022-11-24T05:11:18;16.83;;;5.97;;
53389;SDS011;39288;42.970;1.524;2022-11-24T05:12:19;18.10;;;5.60;;
53389;SDS011;39288;42.970;1.524;2022-11-24T05:13:22;30.27;;;6.50;;
53389;SDS011;39288;42.970;1.524;2022-11-24T05:14:24;14.70;;;4.60;;
53389;SDS011;39288;42.970;1.524;2022-11-24T05:15:27;15.52;;;4.90;;
53389;SDS011;39288;42.970;1.524;2022-11-24T05:16:30;11.67;;;3.03;;
53389;SDS011;39288;42.970;1.524;2022-11-24T05:17:37;12.40;;;3.08;;
53389;SDS011;39288;42.970;1.524;2022-11-24T05:18:38;9.68;;;2.40;;
53389;SDS011;39288;42.970;1.524;2022-11-24T05:19:39;9.73;;;2.80;;
53389;SDS011;39288;42.970;1.524;2022-11-24T05:20:39;11.53;;;2.50;;
53389;SDS011;39288;42.970;1.524;2022-11-24T05:21:40;9.53;;;2.80;;
53389;SDS011;39288;42.970;1.524;2022-11-24T05:22:40;12.40;;;3.80;;
53389;SDS011;39288;42.970;1.524;2022-11-24T05:23:41;14.43;;;3.10;;
53389;SDS011;39288;42.970;1.524;2022-11-24T05:24:45;12.85;;;2.83;;
53389;SDS011;39288;42.970;1.524;2022-11-24T05:25:47;9.73;;;3.00;;
53389;SDS011;39288;42.970;1.524;2022-11-24T05:26:49;13.87;;;3.30;;
53389;SDS011;39288;42.970;1.524;2022-11-24T05:27:50;11.70;;;3.05;;
53389;SDS011;39288;42.970;1.524;2022-11-24T05:28:51;13.68;;;3.63;;
53389;SDS011;39288;42.970;1.524;2022-11-24T05:29:52;17.88;;;2.70;;
53389;SDS011;39288;42.970;1.524;2022-11-24T05:30:52;10.50;;;3.77;;
53389;SDS011;39288;42.970;1.524;2022-11-24T05:31:53;10.37;;;2.57;;
53389;SDS011;39288;42.970;1.524;2022-11-24T05:33:05;14.48;;;3.17;;
53389;SDS011;39288;42.970;1.524;2022-11-24T05:34:11;10.77;;;2.63;;
53389;SDS011;39288;42.970;1.524;2022-11-24T05:35:16;6.82;;;2.20;;
53389;SDS011;39288;42.970;1.524;2022-11-24T05:36:17;27.52;;;3.17;;
53389;SDS011;39288;42.970;1.524;2022-11-24T05:37:36;11.73;;;3.28;;
53389;SDS011;39288;42.970;1.524;2022-11-24T05:38:37;10.40;;;3.27;;
53389;SDS011;39288;42.970;1.524;2022-11-24T05:39:47;13.65;;;3.25;;
53389;SDS011;39288;42.970;1.524;2022-11-24T05:40:48;9.87;;;2.40;;
53389;SDS011;39288;42.970;1.524;2022-11-24T05:41:48;15.67;;;3.20;;
53389;SDS011;39288;42.970;1.524;2022-11-24T05:42:49;11.30;;;2.37;;
53389;SDS011;39288;42.970;1.524;2022-11-24T05:43:49;13.63;;;2.40;;
53389;SDS011;39288;42.970;1.524;2022-11-24T05:44:53;14.87;;;2.90;;
53389;SDS011;39288;42.970;1.524;2022-11-24T05:45:53;12.07;;;2.00;;
53389;SDS011;39288;42.970;1.524;2022-11-24T05:46:54;9.93;;;1.93;;
53389;SDS011;39288;42.970;1.524;2022-11-24T05:47:54;13.90;;;2.47;;
53389;SDS011;39288;42.970;1.524;2022-11-24T05:49:03;8.25;;;2.60;;
53389;SDS011;39288;42.970;1.524;2022-11-24T05:50:04;9.93;;;2.27;;
53389;SDS011;39288;42.970;1.524;2022-11-24T05:51:04;11.40;;;2.30;;
53389;SDS011;39288;42.970;1.524;2022-11-24T05:52:05;10.97;;;2.23;;
53389;SDS011;39288;42.970;1.524;2022-11-24T05:53:10;8.70;;;2.80;;
53389;SDS011;39288;42.970;1.524;2022-11-24T05:54:11;10.30;;;2.20;;
53389;SDS011;39288;42.970;1.524;2022-11-24T05:55:12;12.13;;;2.67;;
53389;SDS011;39288;42.970;1.524;2022-11-24T05:56:18;10.18;;;4.05;;
53389;SDS011;39288;42.970;1.524;2022-11-24T05:57:18;16.70;;;3.93;;
53389;SDS011;39288;42.970;1.524;2022-11-24T05:58:25;9.43;;;2.40;;
53389;SDS011;39288;42.970;1.524;2022-11-24T05:59:28;13.18;;;2.97;;
53389;SDS011;39288;42.970;1.524;2022-11-24T06:00:30;8.90;;;1.87;;
53389;SDS011;39288;42.970;1.524;2022-11-24T06:01:31;13.23;;;2.42;;
53389;SDS011;39288;42.970;1.524;2022-11-24T06:02:32;19.33;;;2.67;;
53389;SDS011;39288;42.970;1.524;2022-11-24T06:03:34;8.55;;;1.98;;
53389;SDS011;39288;42.970;1.524;2022-11-24T06:04:34;9.87;;;2.47;;
53389;SDS011;39288;42.970;1.524;2022-11-24T06:05:35;14.07;;;3.65;;
53389;SDS011;39288;42.970;1.524;2022-11-24T06:06:36;13.10;;;2.40;;
53389;SDS011;39288;42.970;1.524;2022-11-24T06:07:36;9.47;;;2.33;;
53389;SDS011;39288;42.970;1.524;2022-11-24T06:08:39;9.32;;;2.67;;
53389;SDS011;39288;42.970;1.524;2022-11-24T06:09:40;8.95;;;2.55;;
53389;SDS011;39288;42.970;1.524;2022-11-24T06:11:42;5.65;;;2.10;;
53389;SDS011;39288;42.970;1.524;2022-11-24T06:12:43;9.80;;;2.67;;